Winston, MT (59647)

8:09 PM MDT on May 06, 2015 (GMT -0600)
RAWS | | Change Station
CLOSE
Current Station
Personal Weather Station
Location: Winston, MT
Elevation: 4370 ft
Nearby Weather Stations

Elev 4370 ft 46.33 °N, 111.59 °W | Updated 1 hour ago

Overcast
Overcast
55 °F
Feels Like 55 °F
N
17
Wind Variable Wind from NNE
Gusts 26.0 mph

Today
High -- | Low -- °F
--% Chance of Precip.
Yesterday
High -- | Low -- °F
Precip. -- in
6:05 AM 8:41 PM
Waning Gibbous, 91% visible
Pressure 29.90 in
Visibility 10.0 miles
Clouds Scattered Clouds 8000 ft
Dew Point 26 °F
Humidity 33%
Rainfall in
Snow Depth Not available.
UV 0 out of 12
Pollen 6.90 out of 12
Air Quality Not available.
Flu Activity Local Activity
METAR KHLN 070153Z 03009KT 10SM SCT080 12/M03 A2987 RMK AO2 SLP124 T01171033

More Conditions Fewer Conditions

Pressure 29.90 in
Visibility 10.0 miles
Clouds Scattered Clouds 8000 ft
Dew Point 26 °F
Humidity 33%
Rainfall in
Snow Depth Not available.
UV 0 out of 12
Pollen 6.90 out of 12
Air Quality Not available.
Flu Activity Local Activity
METAR KHLN 070153Z 03009KT 10SM SCT080 12/M03 A2987 RMK AO2 SLP124 T01171033

More Conditions Fewer Conditions

10-Day Weather Forecast

Almanac

Astronomy

May. 06, 2015 Rise Set
Actual Time
Civil Twilight
Nautical Twilight
Astronomical Twilight
Moon
Length of Visible Light
Length of Day
Tomorrow will be .
, % of the Moon is Illuminated

Today's Extremes

State Highs State Lows

Community

WunderPhotos

Upload Photos

1,819,074 photos uploaded!

WunderBlogs® & News

Nearby

Air Quality

  Air Quality AQ Index Pollutant
Not available.

Snow Depth

Station Depth Elevation

Earthquake Activity

City Distance Mag. Time & Date
Minimum magnitude displayed is 2.5.

Coastal Water Temperatures

Place Temperature

Stations

Nearby Weather Stations

Station Location Temp. Windchill Dew Point Humidity Wind Precip. Elev Updated Type